首页
METAR-TAF:

METAR-TAF

机场 :

列日机场

列日, 比利时

纬度: 50-39N, 经度: 005-27E, 海拔: 186米

当前天气观测

该预报发布于37分钟前的21:50 UTC
风速13节,风向北转东北
温度 1°C
湿度 47%
气压 1032 hPa
能见度10公里或以上
多云层高于4800英尺

METAR: EBLG 292150Z 03013KT 9999 BKN048 01/M09 Q1032 NOSIG

时间: 00:27 (22:27 UTC)

预报

该预报发布于5小时和26分钟前的17:01 UTC
预报有效从29日的 18点(UTC)到 30日的 24点(UTC)
风速18节,风向北转东北,有时为30节阵风
能见度10公里或以上
散云层高于2000英尺
成为
从 29日的 22点(UTC)到 29日的 24点(UTC)
风速6节,风向北转东北
几率 30% :
短暂存在
从 30日的 03点(UTC)到 30日的 07点(UTC)
能見度: 3000
轻雾

TAF: EBLG 291701Z 2918/3024 02018G30KT 9999 SCT020 BECMG 2922/2924 02006KT PROB30 TEMPO 3003/3007 3000 BR

超过4000个机场的气象观测和天气预报(METAR&TAF报告)。

可查询的气象台以黄色和红色小点在地图上表示。

将鼠标移到小点上方,可查看气象台名称。

然后点击查看天气观测和预报。

如需切换地图:点击带黑十字的绿色按钮放大地图;点击带横线的绿色按钮缩小地图;或者点击绿色箭头查看邻近地区的地图。


METAR-TAF: